createdAt,value
2019-05-29T00:01:56.324Z,40.46
2019-05-29T00:04:24.226Z,40.79
2019-05-29T00:06:51.957Z,40.46
2019-05-29T00:09:19.780Z,40.54
2019-05-29T00:11:47.483Z,41.58
2019-05-29T00:14:22.745Z,40.78
2019-05-29T00:16:44.721Z,40.46
2019-05-29T00:19:12.774Z,40.94
2019-05-29T00:21:40.517Z,40.70
2019-05-29T00:24:12.483Z,40.68
2019-05-29T00:26:40.260Z,40.59
2019-05-29T00:29:08.006Z,40.64
2019-05-29T00:31:35.731Z,41.91
2019-05-29T00:34:11.798Z,41.08
2019-05-29T00:36:39.588Z,40.68
2019-05-29T00:39:08.540Z,40.91
2019-05-29T00:41:37.286Z,41.08
2019-05-29T00:44:05.024Z,40.96
2019-05-29T00:46:32.937Z,41.36
2019-05-29T00:49:00.689Z,41.20
2019-05-29T00:51:28.519Z,41.08
2019-05-29T00:53:56.366Z,40.77
2019-05-29T00:56:24.223Z,41.73
2019-05-29T00:58:51.982Z,41.09
2019-05-29T01:01:20.131Z,41.56
2019-05-29T01:03:47.973Z,41.65
2019-05-29T01:06:16.066Z,41.97
2019-05-29T01:08:43.880Z,41.10
2019-05-29T01:11:14.691Z,41.37
2019-05-29T01:13:46.997Z,41.09
2019-05-29T01:16:11.935Z,41.53
2019-05-29T01:18:39.716Z,40.78
2019-05-29T01:21:07.470Z,41.26
2019-05-29T01:23:35.335Z,41.45
2019-05-29T01:26:03.086Z,41.09
2019-05-29T01:28:31.188Z,41.06
2019-05-29T01:30:58.946Z,41.49
2019-05-29T01:33:26.683Z,40.27
2019-05-29T01:35:54.452Z,41.02
2019-05-29T01:38:23.389Z,41.41
2019-05-29T01:40:51.251Z,41.51
2019-05-29T01:43:19.322Z,41.05
2019-05-29T01:45:47.162Z,41.41
2019-05-29T01:48:15.406Z,41.19
2019-05-29T01:50:43.232Z,41.35
2019-05-29T01:53:19.845Z,41.69
2019-05-29T01:55:47.631Z,41.37
2019-05-29T01:58:15.676Z,41.72
2019-05-29T02:00:43.514Z,41.34
2019-05-29T02:03:11.233Z,41.41
2019-05-29T02:05:38.991Z,41.49
2019-05-29T02:08:06.975Z,41.42
2019-05-29T02:10:34.685Z,41.23
2019-05-29T02:13:02.399Z,41.42
2019-05-29T02:15:33.834Z,41.43
2019-05-29T02:17:59.648Z,41.57
2019-05-29T02:20:27.367Z,41.47
2019-05-29T02:22:55.082Z,41.47
2019-05-29T02:25:22.820Z,41.79
2019-05-29T02:27:50.584Z,41.93
2019-05-29T02:30:20.337Z,41.48
2019-05-29T02:32:55.398Z,41.63
2019-05-29T02:35:24.766Z,41.52
2019-05-29T02:37:52.896Z,41.70
2019-05-29T02:40:21.338Z,42.10
2019-05-29T02:42:50.180Z,42.15
2019-05-29T02:45:19.453Z,41.95
2019-05-29T02:47:47.419Z,42.04
2019-05-29T02:50:15.238Z,41.75
2019-05-29T02:52:43.239Z,42.02
2019-05-29T02:55:10.975Z,41.85
2019-05-29T02:57:38.730Z,41.47
2019-05-29T03:00:08.285Z,41.90
2019-05-29T03:02:36.326Z,41.97
2019-05-29T03:05:23.741Z,42.30
2019-05-29T03:07:56.663Z,41.61
2019-05-29T03:10:26.588Z,42.75
2019-05-29T03:12:54.456Z,41.85
2019-05-29T03:15:23.521Z,42.47
2019-05-29T03:17:51.807Z,42.45
2019-05-29T03:20:19.532Z,42.53
2019-05-29T03:22:47.306Z,42.16
2019-05-29T03:25:15.081Z,41.91
2019-05-29T03:27:42.827Z,42.71
2019-05-29T03:30:10.677Z,42.53
2019-05-29T03:32:46.725Z,42.60
2019-05-29T03:35:28.195Z,42.40
2019-05-29T03:37:58.645Z,42.12
2019-05-29T03:40:24.331Z,42.20
2019-05-29T03:42:52.060Z,42.59
2019-05-29T03:45:19.795Z,42.75
2019-05-29T03:47:47.523Z,42.89
2019-05-29T03:50:15.978Z,43.04
2019-05-29T03:52:43.985Z,43.12
2019-05-29T03:55:12.290Z,43.11
2019-05-29T03:57:40.077Z,43.15
2019-05-29T04:00:07.838Z,43.34
2019-05-29T04:02:37.900Z,43.02
2019-05-29T04:05:05.639Z,42.94
2019-05-29T04:07:48.139Z,43.21
2019-05-29T04:10:10.078Z,43.00
2019-05-29T04:12:38.246Z,43.13
2019-05-29T04:15:06.414Z,43.05
2019-05-29T04:17:35.492Z,42.87
2019-05-29T04:20:03.419Z,43.06
2019-05-29T04:22:34.387Z,43.57
2019-05-29T04:25:03.226Z,42.96
2019-05-29T04:27:31.966Z,43.62
2019-05-29T04:29:59.895Z,44.01
2019-05-29T04:32:28.119Z,43.32
2019-05-29T04:34:56.040Z,43.53
2019-05-29T04:37:23.779Z,42.66
2019-05-29T04:39:51.496Z,43.83
2019-05-29T04:42:19.251Z,42.80
2019-05-29T04:45:10.956Z,43.67
2019-05-29T04:47:35.174Z,43.70
2019-05-29T04:50:03.082Z,43.85
2019-05-29T04:52:31.369Z,42.49
2019-05-29T04:54:59.295Z,42.96
2019-05-29T04:57:27.145Z,43.44
2019-05-29T04:59:54.911Z,42.53
2019-05-29T05:02:22.635Z,43.45
2019-05-29T05:04:50.385Z,43.44
2019-05-29T05:07:18.146Z,43.09
2019-05-29T05:09:45.862Z,43.45
2019-05-29T05:12:13.606Z,43.14
2019-05-29T05:14:41.350Z,43.22
2019-05-29T05:17:23.301Z,43.10
2019-05-29T05:19:47.477Z,44.15
2019-05-29T05:22:15.275Z,44.57
2019-05-29T05:24:44.157Z,44.95
2019-05-29T05:27:12.067Z,44.83
2019-05-29T05:29:40.497Z,44.57
2019-05-29T05:32:08.380Z,44.60
2019-05-29T05:34:40.976Z,43.29
2019-05-29T05:37:06.256Z,42.85
2019-05-29T05:39:35.181Z,43.19
2019-05-29T05:42:03.098Z,43.41
2019-05-29T05:44:30.890Z,42.48
2019-05-29T05:46:58.658Z,44.25
2019-05-29T05:49:26.406Z,41.88
2019-05-29T05:51:54.128Z,42.06
2019-05-29T05:54:21.974Z,41.94
2019-05-29T05:56:54.634Z,43.69
2019-05-29T05:59:22.387Z,42.28
2019-05-29T06:01:50.124Z,41.43
2019-05-29T06:04:17.877Z,41.66
2019-05-29T06:06:46.471Z,42.54
2019-05-29T06:09:14.358Z,41.15
2019-05-29T06:11:42.548Z,41.04
2019-05-29T06:14:10.438Z,41.12
2019-05-29T06:16:38.628Z,40.16
2019-05-29T06:19:06.450Z,40.79
2019-05-29T06:21:34.648Z,40.29
2019-05-29T06:24:02.382Z,40.41
2019-05-29T06:26:30.097Z,41.17
2019-05-29T06:28:57.852Z,40.46
2019-05-29T06:31:27.443Z,39.94
2019-05-29T06:34:13.349Z,40.39
2019-05-29T06:36:41.599Z,40.85
2019-05-29T06:39:10.591Z,39.94
2019-05-29T06:41:38.324Z,39.94
2019-05-29T06:44:06.105Z,40.18
2019-05-29T06:46:34.374Z,40.60
2019-05-29T06:49:02.225Z,39.47
2019-05-29T06:51:30.015Z,40.64
2019-05-29T06:53:57.707Z,40.26
2019-05-29T06:56:25.414Z,39.11
2019-05-29T06:58:53.156Z,40.36
2019-05-29T07:01:20.921Z,39.85
2019-05-29T07:03:48.735Z,39.91
2019-05-29T07:06:23.460Z,40.57
2019-05-29T07:08:51.177Z,40.62
2019-05-29T07:11:18.910Z,40.28
2019-05-29T07:13:49.710Z,39.43
2019-05-29T07:16:16.047Z,39.11
2019-05-29T07:19:20.588Z,40.41
2019-05-29T07:21:13.275Z,40.00
2019-05-29T07:23:41.320Z,39.94
2019-05-29T07:26:09.156Z,40.89
2019-05-29T07:28:37.252Z,38.96
2019-05-29T07:31:06.473Z,40.75
2019-05-29T07:33:34.229Z,40.85
2019-05-29T07:36:01.936Z,40.61
2019-05-29T07:38:29.679Z,39.18
2019-05-29T07:40:57.401Z,40.61
2019-05-29T07:43:28.846Z,40.64
2019-05-29T07:45:58.127Z,40.53
2019-05-29T07:48:25.908Z,40.44
2019-05-29T07:51:06.240Z,40.78
2019-05-29T07:53:23.075Z,40.80
2019-05-29T07:55:50.793Z,40.73
2019-05-29T07:58:18.522Z,40.87
2019-05-29T08:01:05.073Z,40.89
2019-05-29T08:03:15.995Z,41.02
2019-05-29T08:05:47.775Z,40.85
2019-05-29T08:08:13.163Z,40.60
2019-05-29T08:10:41.789Z,39.84
2019-05-29T08:13:09.567Z,41.01
2019-05-29T08:15:51.988Z,41.10
2019-05-29T08:18:08.412Z,41.16
2019-05-29T08:20:41.919Z,41.34
2019-05-29T08:23:09.944Z,41.10
2019-05-29T08:25:37.694Z,41.86
2019-05-29T08:28:05.516Z,41.24
2019-05-29T08:30:33.230Z,42.16
2019-05-29T08:33:00.990Z,41.46
2019-05-29T08:35:28.751Z,41.57
2019-05-29T08:37:56.604Z,41.12
2019-05-29T08:40:24.407Z,40.76
2019-05-29T08:42:52.155Z,41.99
2019-05-29T08:45:19.969Z,41.64
2019-05-29T08:47:47.811Z,41.98
2019-05-29T08:50:18.552Z,42.17
2019-05-29T08:52:45.986Z,41.60
2019-05-29T08:55:14.047Z,41.54
2019-05-29T08:57:52.413Z,41.28
2019-05-29T09:00:20.243Z,40.82
2019-05-29T09:02:49.167Z,41.53
2019-05-29T09:05:17.186Z,40.24
2019-05-29T09:07:46.420Z,40.54
2019-05-29T09:10:14.389Z,41.04
2019-05-29T09:12:45.928Z,40.79
2019-05-29T09:15:11.576Z,40.98
2019-05-29T09:17:39.369Z,40.43
2019-05-29T09:20:07.195Z,41.08
2019-05-29T09:22:35.010Z,39.38
2019-05-29T09:25:02.786Z,40.40
2019-05-29T09:27:30.525Z,40.75
2019-05-29T09:29:58.322Z,40.61
2019-05-29T09:32:49.360Z,40.50
2019-05-29T09:35:02.424Z,40.50
2019-05-29T09:37:30.158Z,40.42
2019-05-29T09:39:57.880Z,39.86
2019-05-29T09:42:25.647Z,40.07
2019-05-29T09:44:53.379Z,40.20
2019-05-29T09:47:22.230Z,41.13
2019-05-29T09:49:50.022Z,39.87
2019-05-29T09:52:17.767Z,40.36
2019-05-29T09:54:45.483Z,39.60
2019-05-29T09:57:15.333Z,40.60
2019-05-29T09:59:42.679Z,36.92
2019-05-29T10:02:10.399Z,39.71
2019-05-29T10:04:38.149Z,39.65
2019-05-29T10:07:05.884Z,38.58
2019-05-29T10:09:42.258Z,37.46
2019-05-29T10:12:09.969Z,39.16
2019-05-29T10:14:37.723Z,38.97
2019-05-29T10:17:11.824Z,39.33
2019-05-29T10:19:34.888Z,39.55
2019-05-29T10:22:03.918Z,39.32
2019-05-29T10:24:32.581Z,37.23
2019-05-29T10:27:01.610Z,37.30
2019-05-29T10:29:30.211Z,36.34
2019-05-29T10:31:57.957Z,38.47
2019-05-29T10:34:25.663Z,38.46
2019-05-29T10:36:54.758Z,38.40
2019-05-29T10:39:22.720Z,37.25
2019-05-29T10:41:51.508Z,35.98
2019-05-29T10:44:24.032Z,37.68
2019-05-29T10:46:54.080Z,36.97
2019-05-29T10:49:21.291Z,38.25
2019-05-29T10:52:09.072Z,38.55
2019-05-29T10:54:18.509Z,37.17
2019-05-29T10:56:46.882Z,37.79
2019-05-29T10:59:14.732Z,38.66
2019-05-29T11:01:42.487Z,39.00
2019-05-29T11:04:10.245Z,38.94
2019-05-29T11:06:40.751Z,39.00
2019-05-29T11:09:07.438Z,39.08
2019-05-29T11:11:35.173Z,39.31
2019-05-29T11:14:02.911Z,39.38
2019-05-29T11:16:30.644Z,39.39
2019-05-29T11:18:58.543Z,39.44
2019-05-29T11:21:30.040Z,39.45
2019-05-29T11:23:59.418Z,38.74
2019-05-29T11:26:27.141Z,39.16
2019-05-29T11:28:54.856Z,38.59
2019-05-29T11:31:22.611Z,38.88
2019-05-29T11:33:50.763Z,38.82
2019-05-29T11:36:18.526Z,39.11
2019-05-29T11:38:46.333Z,38.58
2019-05-29T11:41:25.585Z,39.06
2019-05-29T11:43:43.518Z,39.48
2019-05-29T11:46:11.259Z,39.26
2019-05-29T11:48:39.005Z,37.81
2019-05-29T11:51:06.722Z,38.87
2019-05-29T11:53:34.467Z,36.54
2019-05-29T11:56:02.241Z,38.05
2019-05-29T11:58:31.688Z,38.26
2019-05-29T12:01:06.968Z,39.14
2019-05-29T12:03:34.770Z,36.64
2019-05-29T12:06:03.317Z,37.99
2019-05-29T12:08:31.098Z,38.51
2019-05-29T12:10:59.456Z,38.93
2019-05-29T12:13:27.414Z,39.09
2019-05-29T12:15:55.956Z,39.19
2019-05-29T12:18:24.659Z,39.33
2019-05-29T12:20:53.897Z,39.27
2019-05-29T12:23:26.358Z,39.45
2019-05-29T12:26:10.298Z,39.24
2019-05-29T12:28:20.813Z,39.17
2019-05-29T12:30:48.552Z,39.00
2019-05-29T12:33:16.275Z,35.87
2019-05-29T12:35:44.022Z,36.97
2019-05-29T12:38:22.418Z,35.68
2019-05-29T12:40:50.310Z,35.40
2019-05-29T12:43:27.147Z,37.63
2019-05-29T12:45:47.570Z,37.87
2019-05-29T12:48:16.163Z,37.21
2019-05-29T12:50:44.424Z,34.27
2019-05-29T12:53:28.973Z,35.01
2019-05-29T12:55:41.595Z,34.50
2019-05-29T12:58:09.688Z,36.65
2019-05-29T13:00:37.409Z,37.17
2019-05-29T13:03:05.376Z,37.80
2019-05-29T13:05:33.139Z,37.91
2019-05-29T13:08:00.943Z,38.10
2019-05-29T13:10:30.919Z,37.10
2019-05-29T13:13:10.909Z,37.69
2019-05-29T13:15:36.856Z,38.04
2019-05-29T13:18:09.487Z,38.26
2019-05-29T13:20:34.419Z,38.59
2019-05-29T13:23:03.588Z,38.52
2019-05-29T13:25:31.635Z,37.75
2019-05-29T13:28:00.851Z,35.96
2019-05-29T13:30:29.108Z,38.04
2019-05-29T13:33:02.299Z,36.10
2019-05-29T13:35:26.624Z,35.66
2019-05-29T13:37:54.534Z,37.58
2019-05-29T13:40:22.320Z,37.12
2019-05-29T13:42:50.299Z,36.91
2019-05-29T13:48:07.552Z,35.93
2019-05-29T13:50:35.981Z,35.62
2019-05-29T13:53:03.790Z,33.50
2019-05-29T13:55:31.622Z,34.02
2019-05-29T13:57:59.574Z,33.47
2019-05-29T14:00:35.175Z,35.89
2019-05-29T14:02:58.231Z,36.47
2019-05-29T14:05:26.223Z,33.24
2019-05-29T14:07:53.993Z,31.79
2019-05-29T14:10:21.720Z,33.10
2019-05-29T14:12:49.460Z,34.28
2019-05-29T14:15:34.828Z,34.50
2019-05-29T14:18:02.931Z,34.06
2019-05-29T14:20:30.811Z,33.33
2019-05-29T14:22:58.530Z,35.53
2019-05-29T14:25:26.256Z,36.31
2019-05-29T14:27:54.051Z,36.55
2019-05-29T14:30:21.791Z,32.32
2019-05-29T14:32:49.529Z,33.67
2019-05-29T14:35:17.230Z,35.03
2019-05-29T14:37:44.956Z,36.00
2019-05-29T14:40:12.727Z,36.49
2019-05-29T14:42:40.452Z,36.78
2019-05-29T14:45:08.527Z,36.95
2019-05-29T14:47:46.639Z,34.56
2019-05-29T14:50:11.237Z,32.12
2019-05-29T14:52:40.361Z,34.24
2019-05-29T14:55:09.025Z,35.65
2019-05-29T14:57:37.547Z,32.18
2019-05-29T15:00:16.367Z,31.78
2019-05-29T15:02:34.818Z,33.47
2019-05-29T15:05:03.699Z,35.22
2019-05-29T15:07:31.548Z,35.10
2019-05-29T15:10:00.282Z,35.88
2019-05-29T15:12:28.027Z,36.43
2019-05-29T15:14:55.782Z,36.67
2019-05-29T15:17:23.503Z,36.87
2019-05-29T15:19:51.210Z,36.13
2019-05-29T15:31:48.041Z,35.86
2019-05-29T15:34:16.534Z,33.56
2019-05-29T15:40:17.139Z,36.26
2019-05-29T15:43:39.879Z,36.89
2019-05-29T15:46:17.691Z,37.13
2019-05-29T15:51:53.850Z,35.63
2019-05-29T15:54:24.765Z,36.08
2019-05-29T15:57:01.206Z,34.25
2019-05-29T15:59:29.262Z,32.23
2019-05-29T16:02:25.635Z,33.90
2019-05-29T16:22:12.225Z,36.21
2019-05-29T16:24:54.889Z,31.55
2019-05-29T16:27:22.797Z,32.29
2019-05-29T16:29:53.250Z,32.02
2019-05-29T16:39:40.237Z,33.27
2019-05-29T16:42:11.885Z,33.75
2019-05-29T16:51:14.658Z,33.48
2019-05-29T17:03:26.430Z,34.88
2019-05-29T17:05:56.964Z,35.76
2019-05-29T17:53:07.074Z,36.02
2019-05-29T17:55:59.489Z,35.66
2019-05-29T17:58:27.444Z,35.82
2019-05-29T18:04:52.734Z,35.74
2019-05-29T18:07:24.863Z,36.32
2019-05-29T18:10:27.203Z,36.38
2019-05-29T18:25:56.165Z,36.31
2019-05-29T18:28:24.164Z,36.31
2019-05-29T18:30:52.141Z,36.32
2019-05-29T18:43:13.208Z,36.28
2019-05-29T18:49:20.364Z,36.37
2019-05-29T18:51:51.227Z,36.34
2019-05-29T18:54:23.507Z,36.31
2019-05-29T18:57:13.810Z,36.35
2019-05-29T19:00:10.130Z,36.24
2019-05-29T19:03:09.561Z,36.11
2019-05-29T19:06:21.692Z,36.13
2019-05-29T19:12:49.920Z,36.06
2019-05-29T19:25:28.914Z,35.76
2019-05-29T19:27:56.964Z,36.03
2019-05-29T19:30:24.905Z,35.89
2019-05-29T19:35:49.132Z,35.82
2019-05-29T19:38:17.007Z,35.82
2019-05-29T19:40:44.818Z,35.84
2019-05-29T19:43:13.008Z,35.80
2019-05-29T19:45:40.785Z,35.60
2019-05-29T19:48:10.706Z,35.31
2019-05-29T19:51:25.215Z,31.16
2019-05-29T19:54:15.459Z,30.84
2019-05-29T19:57:49.837Z,31.11
2019-05-29T19:59:59.554Z,33.57
2019-05-29T20:02:28.469Z,30.43
2019-05-29T20:04:56.405Z,31.71
2019-05-29T20:08:39.946Z,29.87
2019-05-29T20:11:10.426Z,28.47
2019-05-29T20:30:12.311Z,30.72
2019-05-29T20:32:40.254Z,30.58
2019-05-29T20:35:08.096Z,30.18
2019-05-29T20:44:30.627Z,30.31
2019-05-29T20:47:03.979Z,29.87
2019-05-29T20:49:47.477Z,31.56
2019-05-29T20:52:20.778Z,31.97
2019-05-29T20:54:48.641Z,32.38
2019-05-29T20:57:26.229Z,31.71
2019-05-29T20:59:54.047Z,31.27
2019-05-29T21:11:50.242Z,32.35
2019-05-29T21:14:23.578Z,33.07
2019-05-29T21:16:51.392Z,32.17
2019-05-29T21:19:19.241Z,33.05
2019-05-29T21:21:53.027Z,32.14
2019-05-29T21:24:21.123Z,32.24
2019-05-29T21:27:08.329Z,32.55
2019-05-29T21:29:37.205Z,31.23
2019-05-29T21:32:14.907Z,32.68
2019-05-29T21:43:52.420Z,32.12
2019-05-29T21:46:20.564Z,32.67
2019-05-29T21:48:48.461Z,33.48
2019-05-29T21:51:16.238Z,33.79
2019-05-29T21:53:45.569Z,33.83
2019-05-29T21:56:28.962Z,34.61
2019-05-29T21:59:03.520Z,33.93
2019-05-29T22:14:53.352Z,34.94
2019-05-29T22:17:20.944Z,34.94
2019-05-29T22:19:50.765Z,34.39
2019-05-29T22:22:18.736Z,34.67
2019-05-29T22:24:49.342Z,35.09
2019-05-29T22:27:17.229Z,35.20
2019-05-29T22:29:45.094Z,34.62
2019-05-29T22:32:12.921Z,35.24
2019-05-29T22:35:17.255Z,34.69
2019-05-29T22:37:48.021Z,34.56
2019-05-29T22:40:20.816Z,34.55
2019-05-29T22:42:48.780Z,35.31
2019-05-29T22:45:16.708Z,35.19
2019-05-29T22:47:44.547Z,35.02
2019-05-29T22:50:14.190Z,34.85
2019-05-29T22:52:42.309Z,35.33
2019-05-29T22:55:10.164Z,35.21
2019-05-29T22:57:38.117Z,35.48
2019-05-29T23:00:05.994Z,35.41
2019-05-29T23:02:33.777Z,35.42
2019-05-29T23:05:03.641Z,34.85
2019-05-29T23:07:37.157Z,35.20
2019-05-29T23:10:05.511Z,35.50
2019-05-29T23:12:33.480Z,35.05
2019-05-29T23:15:02.652Z,34.73
2019-05-29T23:17:30.771Z,35.48
2019-05-29T23:19:58.689Z,35.06
2019-05-29T23:22:26.925Z,35.65
2019-05-29T23:24:54.902Z,35.54
2019-05-29T23:27:22.767Z,35.22
2019-05-29T23:29:50.672Z,35.52
2019-05-29T23:32:18.533Z,35.13
2019-05-29T23:34:46.321Z,35.57
2019-05-29T23:40:29.858Z,35.88
2019-05-29T23:42:57.711Z,35.48
2019-05-29T23:45:25.705Z,35.26
2019-05-29T23:51:22.328Z,35.56
2019-05-29T23:53:50.187Z,35.89
2019-05-29T23:56:18.068Z,35.59
2019-05-29T23:58:45.873Z,36.09
